Time;durP1;ratioP1;P1;durP2;ratioP2;P2;SDS_P1;SDS_P2;PMS_P1;PMS_P2;Temp;Humidity;BMP_temperature;BMP_pressure;BME280_temperature;BME280_humidity;BME280_pressure;Samples;Min_cycle;Max_cycle;Signal;HPM_P1;HPM_P2
2023/07/20 00:08:29;;;;;;;1999.90;999.90;;;;;;;;;;6743831;88;20192;-79
2023/07/20 00:18:31;;;;;;;1999.90;999.90;;;;;;;;;;6744019;88;20189;-79
2023/07/20 00:28:32;;;;;;;1999.90;999.90;;;;;;;;;;6745076;88;20189;-79
2023/07/20 00:38:33;;;;;;;1999.90;999.90;;;;;;;;;;6744705;88;20234;-80
2023/07/20 00:48:34;;;;;;;1999.90;999.90;;;;;;;;;;6744644;88;20214;-79
2023/07/20 00:58:36;;;;;;;1999.90;999.90;;;;;;;;;;6747208;88;20230;-79
2023/07/20 01:08:57;;;;;;;1999.90;999.90;;;;;;;;;;6753434;77;20352;-77
2023/07/20 01:18:58;;;;;;;1999.90;999.90;;;;;;;;;;6705586;88;20244;-77
2023/07/20 01:29:05;;;;;;;1999.90;999.90;;;;;;;;;;6702583;88;20206;-78
2023/07/20 01:39:07;;;;;;;1999.90;999.90;;;;;;;;;;6699211;88;20280;-78
2023/07/20 01:49:08;;;;;;;1999.90;999.90;;;;;;;;;;6701475;88;20277;-78
2023/07/20 01:59:09;;;;;;;1999.90;999.90;;;;;;;;;;6703836;88;20377;-78
2023/07/20 02:09:10;;;;;;;1999.90;999.90;;;;;;;;;;6710109;88;20206;-78
2023/07/20 02:19:11;;;;;;;1999.90;999.90;;;;;;;;;;6706554;88;20204;-79
2023/07/20 02:29:12;;;;;;;1999.90;999.90;;;;;;;;;;6705517;88;20194;-78
2023/07/20 02:39:13;;;;;;;1999.90;999.90;;;;;;;;;;6701849;88;20628;-77
2023/07/20 02:49:14;;;;;;;1999.90;999.90;;;;;;;;;;6701184;88;20202;-77
2023/07/20 02:59:15;;;;;;;1999.90;999.90;;;;;;;;;;6701292;88;20265;-78
2023/07/20 03:09:16;;;;;;;1999.90;999.90;;;;;;;;;;6686844;88;20227;-77
2023/07/20 03:19:16;;;;;;;1999.90;999.90;;;;;;;;;;6685616;88;20314;-77
2023/07/20 03:29:17;;;;;;;1999.90;999.90;;;;;;;;;;6702928;88;20191;-77
2023/07/20 03:39:19;;;;;;;1999.90;999.90;;;;;;;;;;6700429;88;20268;-77
2023/07/20 03:49:20;;;;;;;1999.90;999.90;;;;;;;;;;6702864;88;20202;-77
2023/07/20 03:59:21;;;;;;;1999.90;999.90;;;;;;;;;;6707499;88;20635;-78
2023/07/20 04:09:22;;;;;;;1999.90;999.90;;;;;;;;;;6699651;88;20215;-78
2023/07/20 04:19:23;;;;;;;1999.90;999.90;;;;;;;;;;6701429;88;20188;-77
2023/07/20 04:29:24;;;;;;;1999.90;999.90;;;;;;;;;;6697827;88;20664;-77
2023/07/20 04:39:25;;;;;;;1999.90;999.90;;;;;;;;;;6688211;88;20210;-78
2023/07/20 04:49:26;;;;;;;1999.90;999.90;;;;;;;;;;6687983;88;20208;-77
2023/07/20 04:59:26;;;;;;;1999.90;999.90;;;;;;;;;;6698035;88;20218;-76
2023/07/20 05:09:28;;;;;;;1999.90;999.90;;;;;;;;;;6709529;88;20269;-78
2023/07/20 05:19:29;;;;;;;1999.90;999.90;;;;;;;;;;6701744;88;20240;-78
2023/07/20 05:29:30;;;;;;;1999.90;999.90;;;;;;;;;;6705619;88;20740;-79
2023/07/20 05:39:32;;;;;;;1999.90;999.90;;;;;;;;;;6701347;88;20649;-78
2023/07/20 05:49:34;;;;;;;1999.90;999.90;;;;;;;;;;6705393;88;20244;-79
2023/07/20 05:59:35;;;;;;;1999.90;999.90;;;;;;;;;;6704650;88;20215;-80
2023/07/20 06:09:36;;;;;;;1999.90;999.90;;;;;;;;;;6708797;88;20304;-79
2023/07/20 06:19:38;;;;;;;1999.90;999.90;;;;;;;;;;6706295;88;20313;-79
2023/07/20 06:29:39;;;;;;;1999.90;999.90;;;;;;;;;;6710291;88;20186;-79
2023/07/20 06:39:40;;;;;;;1999.90;999.90;;;;;;;;;;6707405;88;20206;-79
2023/07/20 06:49:41;;;;;;;1999.90;999.90;;;;;;;;;;6706776;88;20186;-79
2023/07/20 06:59:42;;;;;;;1999.90;999.90;;;;;;;;;;6706581;88;20211;-79
2023/07/20 07:20:46;;;;;;;1999.90;999.90;;;;;;;;;;6741614;88;20164;-78
2023/07/20 07:30:47;;;;;;;1999.90;999.90;;;;;;;;;;6711237;88;20189;-79
2023/07/20 07:40:48;;;;;;;1999.90;999.90;;;;;;;;;;6712913;88;20494;-80
2023/07/20 07:50:49;;;;;;;1999.90;999.90;;;;;;;;;;6710589;88;20179;-79
2023/07/20 08:00:50;;;;;;;1999.90;999.90;;;;;;;;;;6704384;88;20180;-78
2023/07/20 08:10:55;;;;;;;1999.90;999.90;;;;;;;;;;6714272;88;20194;-78
2023/07/20 08:20:56;;;;;;;1999.90;999.90;;;;;;;;;;6712663;88;20170;-79
2023/07/20 08:30:57;;;;;;;1999.90;999.90;;;;;;;;;;6724839;88;20182;-79
2023/07/20 08:40:59;;;;;;;1999.90;999.90;;;;;;;;;;6724875;88;20305;-78
2023/07/20 08:51:01;;;;;;;1999.90;999.90;;;;;;;;;;6723858;88;20214;-80
2023/07/20 09:01:03;;;;;;;1999.90;999.90;;;;;;;;;;6730717;88;20215;-79
2023/07/20 09:11:04;;;;;;;1999.90;999.90;;;;;;;;;;6722093;88;20202;-79
2023/07/20 09:21:06;;;;;;;1999.90;999.90;;;;;;;;;;6729087;88;20198;-82
2023/07/20 09:31:16;;;;;;;1999.90;999.90;;;;;;;;;;6727766;88;20182;-79
2023/07/20 09:41:18;;;;;;;1999.90;999.90;;;;;;;;;;6718147;88;20194;-81
2023/07/20 09:51:20;;;;;;;1999.90;999.90;;;;;;;;;;6720019;88;20278;-81
2023/07/20 10:01:22;;;;;;;1999.90;999.90;;;;;;;;;;6731770;88;20190;-82
2023/07/20 10:11:27;;;;;;;1999.90;999.90;;;;;;;;;;6728652;88;20167;-80
2023/07/20 10:21:29;;;;;;;1999.90;999.90;;;;;;;;;;6735233;88;20229;-80
2023/07/20 10:31:30;;;;;;;1999.90;999.90;;;;;;;;;;6727544;88;20764;-81
2023/07/20 10:41:36;;;;;;;1999.90;999.90;;;;;;;;;;6707547;88;20218;-78
2023/07/20 10:51:41;;;;;;;1999.90;999.90;;;;;;;;;;6715552;88;20245;-79
2023/07/20 11:01:42;;;;;;;1999.90;999.90;;;;;;;;;;6724437;88;20198;-79
2023/07/20 11:11:44;;;;;;;1999.90;999.90;;;;;;;;;;6726550;88;20191;-79
2023/07/20 11:21:47;;;;;;;1999.90;999.90;;;;;;;;;;6724056;88;20686;-78
2023/07/20 11:31:48;;;;;;;1999.90;999.90;;;;;;;;;;6715356;88;20220;-78
2023/07/20 11:41:53;;;;;;;1999.90;999.90;;;;;;;;;;6728870;88;20194;-80
2023/07/20 11:51:54;;;;;;;1999.90;999.90;;;;;;;;;;6724714;88;20202;-80
2023/07/20 12:01:55;;;;;;;1999.90;999.90;;;;;;;;;;6717939;88;20328;-80
2023/07/20 12:11:56;;;;;;;1999.90;999.90;;;;;;;;;;6725507;88;20212;-79
2023/07/20 12:22:01;;;;;;;1999.90;999.90;;;;;;;;;;6725874;88;20610;-80
2023/07/20 12:32:02;;;;;;;1999.90;999.90;;;;;;;;;;6720209;88;20559;-81
2023/07/20 12:42:03;;;;;;;1999.90;999.90;;;;;;;;;;6735360;88;20232;-80
2023/07/20 12:52:04;;;;;;;1999.90;999.90;;;;;;;;;;6719314;88;20603;-80
2023/07/20 13:02:06;;;;;;;1999.90;999.90;;;;;;;;;;6724094;88;20213;-80
2023/07/20 13:12:07;;;;;;;1999.90;999.90;;;;;;;;;;6722268;88;20293;-81
2023/07/20 13:22:08;;;;;;;1999.90;999.90;;;;;;;;;;6729474;88;20214;-84
2023/07/20 13:32:09;;;;;;;1999.90;999.90;;;;;;;;;;6727656;88;20312;-83
2023/07/20 13:42:11;;;;;;;1999.90;999.90;;;;;;;;;;6719299;88;20181;-81
2023/07/20 13:52:12;;;;;;;1999.90;999.90;;;;;;;;;;6723094;88;20237;-81
2023/07/20 14:02:15;;;;;;;1999.90;999.90;;;;;;;;;;6726965;88;20205;-80
2023/07/20 14:22:21;;;;;;;1999.90;999.90;;;;;;;;;;6704170;88;20670;-80
2023/07/20 14:32:21;;;;;;;1999.90;999.90;;;;;;;;;;6712567;88;20162;-82
2023/07/20 14:42:22;;;;;;;1999.90;999.90;;;;;;;;;;6704395;88;20194;-80
2023/07/20 14:52:23;;;;;;;1999.90;999.90;;;;;;;;;;6709024;88;20178;-81
2023/07/20 15:13:06;;;;;;;1999.90;999.90;;;;;;;;;;6725962;88;20196;-80
2023/07/20 15:23:07;;;;;;;1999.90;999.90;;;;;;;;;;6724821;88;20727;-81
2023/07/20 15:33:08;;;;;;;1999.90;999.90;;;;;;;;;;6725546;88;20734;-83
2023/07/20 15:43:09;;;;;;;1999.90;999.90;;;;;;;;;;6732123;88;20339;-86
2023/07/20 16:04:14;;;;;;;1999.90;999.90;;;;;;;;;;6719246;88;20684;-80
2023/07/20 16:14:15;;;;;;;1999.90;999.90;;;;;;;;;;6742145;88;20340;-83
2023/07/20 16:24:18;;;;;;;1999.90;999.90;;;;;;;;;;6750962;88;20203;-81
2023/07/20 16:34:19;;;;;;;1999.90;999.90;;;;;;;;;;6745873;88;20641;-80
2023/07/20 16:44:20;;;;;;;1999.90;999.90;;;;;;;;;;6748968;88;20536;-79
2023/07/20 16:54:21;;;;;;;1999.90;999.90;;;;;;;;;;6749662;88;20189;-80
2023/07/20 17:14:25;;;;;;;1999.90;999.90;;;;;;;;;;6744580;88;20332;-80
2023/07/20 17:24:27;;;;;;;1999.90;999.90;;;;;;;;;;6747856;88;20912;-79
2023/07/20 17:34:28;;;;;;;1999.90;999.90;;;;;;;;;;6737599;88;20207;-79
2023/07/20 17:44:29;;;;;;;1999.90;999.90;;;;;;;;;;6739860;88;20664;-80
2023/07/20 17:54:30;;;;;;;1999.90;999.90;;;;;;;;;;6741777;88;20210;-81
2023/07/20 18:04:30;;;;;;;1999.90;999.90;;;;;;;;;;6737755;88;20707;-79
2023/07/20 18:14:31;;;;;;;1999.90;999.90;;;;;;;;;;6737200;88;20283;-79
2023/07/20 18:24:32;;;;;;;1999.90;999.90;;;;;;;;;;6743473;88;20203;-78
2023/07/20 18:34:33;;;;;;;1999.90;999.90;;;;;;;;;;6735123;88;20372;-80
2023/07/20 18:44:34;;;;;;;1999.90;999.90;;;;;;;;;;6734988;88;20206;-80
2023/07/20 18:54:35;;;;;;;1999.90;999.90;;;;;;;;;;6736024;88;20260;-80
2023/07/20 19:04:36;;;;;;;1999.90;999.90;;;;;;;;;;6738456;88;20236;-78
2023/07/20 19:14:37;;;;;;;1999.90;999.90;;;;;;;;;;6729460;88;20190;-85
2023/07/20 19:24:38;;;;;;;1999.90;999.90;;;;;;;;;;6722957;88;20689;-81
2023/07/20 19:34:39;;;;;;;1999.90;999.90;;;;;;;;;;6718755;88;20219;-81
2023/07/20 19:44:41;;;;;;;1999.90;999.90;;;;;;;;;;6723560;88;20546;-81
2023/07/20 19:54:42;;;;;;;1999.90;999.90;;;;;;;;;;6727365;88;20251;-81
2023/07/20 20:04:43;;;;;;;1999.90;999.90;;;;;;;;;;6725743;88;20647;-81
2023/07/20 20:14:44;;;;;;;1999.90;999.90;;;;;;;;;;6720560;88;20197;-81
2023/07/20 20:24:50;;;;;;;1999.90;999.90;;;;;;;;;;6726080;88;20297;-81
2023/07/20 20:34:51;;;;;;;1999.90;999.90;;;;;;;;;;6709675;88;20194;-80
2023/07/20 20:44:54;;;;;;;1999.90;999.90;;;;;;;;;;6703303;89;20203;-80
2023/07/20 20:54:55;;;;;;;1999.90;999.90;;;;;;;;;;6706222;88;20206;-81
2023/07/20 21:04:57;;;;;;;1999.90;999.90;;;;;;;;;;6705912;88;20206;-81
2023/07/20 21:15:04;;;;;;;1999.90;999.90;;;;;;;;;;6708897;88;20168;-81
2023/07/20 21:25:06;;;;;;;1999.90;999.90;;;;;;;;;;6705591;88;20182;-81
2023/07/20 21:35:07;;;;;;;1999.90;999.90;;;;;;;;;;6711334;88;20614;-83
2023/07/20 21:45:08;;;;;;;1999.90;999.90;;;;;;;;;;6708665;88;20673;-80
2023/07/20 21:55:09;;;;;;;1999.90;999.90;;;;;;;;;;6685883;89;20212;-80
2023/07/20 22:05:12;;;;;;;1999.90;999.90;;;;;;;;;;6705307;88;20220;-79
2023/07/20 22:26:16;;;;;;;1999.90;999.90;;;;;;;;;;6723472;88;20190;-84
2023/07/20 22:36:18;;;;;;;1999.90;999.90;;;;;;;;;;6725365;88;20310;-81
2023/07/20 22:46:19;;;;;;;1999.90;999.90;;;;;;;;;;6721984;88;20351;-82
2023/07/20 22:56:20;;;;;;;1999.90;999.90;;;;;;;;;;6726424;88;20635;-82
2023/07/20 23:06:21;;;;;;;1999.90;999.90;;;;;;;;;;6730919;88;20201;-82
2023/07/20 23:16:22;;;;;;;1999.90;999.90;;;;;;;;;;6719832;88;20661;-83
2023/07/20 23:26:23;;;;;;;1999.90;999.90;;;;;;;;;;6710958;88;20206;-78
2023/07/20 23:36:24;;;;;;;1999.90;999.90;;;;;;;;;;6709436;88;20202;-79
2023/07/20 23:46:27;;;;;;;1999.90;999.90;;;;;;;;;;6713082;88;20238;-80
2023/07/20 23:56:29;;;;;;;1999.90;999.90;;;;;;;;;;6717534;88;20670;-82
